Impacts METAR Board INFO
IDs:

KBHM - Birmingham Intl, AL, US

Updated at: 2206 UTC 19 Feb 2018
Potential Impact None Slight Moderate High
Time19/10Z 19/11Z 19/12Z 19/13Z 19/14Z 19/15Z 19/16Z 19/17Z 19/18Z 19/19Z 19/20Z 19/21Z 19/22Z
VIS10 10 10 10 9 6 9 10 10 10 10 10 10
CIG-- -- -- 7 -- 12 250 250 250 250 70 70 70
CoverCLRCLRSCTOVCSCTOVCBKNBKNBKNBKNBKNOVCOVC
FltCatVFRVFRVFRIFRVFRMVFRVFRVFRVFRVFRVFRVFRVFR
WX----------BR--------------
WDir20505030150150140140150150160190150
WSpd5 5 4 3 8 10 11 13 10 9 9 16 6
WGst-- -- -- -- -- 15 18 20 19 19 17 19 18
Raw hourly METARs
KBHM 190953Z 02005KT 10SM CLR 14/13 A3023 RMK AO2 SLP234 T01390128
KBHM 191053Z 05005KT 10SM CLR 14/13 A3025 RMK AO2 SLP241 T01440133
KBHM 191153Z 05004KT 10SM SCT010 14/13 A3025 RMK AO2 SLP242 70001 T01440133 10161 20133 51007
KBHM 191253Z 03003KT 10SM OVC007 16/14 A3027 RMK AO2 SLP247 T01560144
KBHM 191353Z 15008KT 9SM SCT007 17/16 A3029 RMK AO2 SLP253 T01670156
KBHM 191453Z 15010G15KT 6SM BR OVC012 17/16 A3030 RMK AO2 SLP257 T01720156 51016
KBHM 191602Z COR 14011G18KT 9SM SCT012 BKN250 19/16 A3030 RMK AO2 T01940156
KBHM 191653Z 14013G20KT 10SM BKN250 22/16 A3029 RMK AO2 SLP251 T02170156
KBHM 191753Z 15010G19KT 10SM SCT032 BKN250 24/15 A3025 RMK AO2 SLP238 T02390150 10239 20144 58016
KBHM 191853Z 15009G19KT 120V180 10SM FEW037 BKN250 24/14 A3022 RMK AO2 SLP228 T02440144
KBHM 191953Z 16009G17KT 10SM FEW041 SCT050 BKN070 BKN250 24/14 A3020 RMK AO2 SLP222 T02390139
KBHM 192053Z 19016G19KT 10SM SCT055 OVC070 26/13 A3020 RMK AO2 SLP221 T02560133 56017
KBHM 192153Z 15006G18KT 10SM BKN070 OVC250 25/13 A3020 RMK AO2 SLP219 T02500128